sensor_id;sensor_type;location;lat;lon;timestamp;temperature;humidity
21772;DHT22;11047;47.904;8.110;2023-10-08T00:01:08;8.40;99.90
21772;DHT22;11047;47.904;8.110;2023-10-08T00:03:39;8.40;99.90
21772;DHT22;11047;47.904;8.110;2023-10-08T00:06:14;8.40;99.90
21772;DHT22;11047;47.904;8.110;2023-10-08T00:08:41;8.40;99.90
21772;DHT22;11047;47.904;8.110;2023-10-08T00:11:08;8.40;99.90
21772;DHT22;11047;47.904;8.110;2023-10-08T00:13:37;8.40;99.90
21772;DHT22;11047;47.904;8.110;2023-10-08T00:16:06;8.40;99.90
21772;DHT22;11047;47.904;8.110;2023-10-08T00:18:36;8.20;99.90
21772;DHT22;11047;47.904;8.110;2023-10-08T00:21:04;8.20;99.90
21772;DHT22;11047;47.904;8.110;2023-10-08T00:23:42;8.40;99.90
21772;DHT22;11047;47.904;8.110;2023-10-08T00:26:16;8.20;99.90
21772;DHT22;11047;47.904;8.110;2023-10-08T00:28:55;8.30;99.90
21772;DHT22;11047;47.904;8.110;2023-10-08T00:31:22;8.80;99.90
21772;DHT22;11047;47.904;8.110;2023-10-08T00:33:52;8.50;99.90
21772;DHT22;11047;47.904;8.110;2023-10-08T00:36:20;8.80;99.90
21772;DHT22;11047;47.904;8.110;2023-10-08T00:38:47;8.10;99.90
21772;DHT22;11047;47.904;8.110;2023-10-08T00:41:16;8.20;99.90
21772;DHT22;11047;47.904;8.110;2023-10-08T00:43:47;8.00;99.90
21772;DHT22;11047;47.904;8.110;2023-10-08T00:46:16;8.20;99.90
21772;DHT22;11047;47.904;8.110;2023-10-08T00:48:48;8.10;99.90
21772;DHT22;11047;47.904;8.110;2023-10-08T00:51:17;8.10;99.90
21772;DHT22;11047;47.904;8.110;2023-10-08T00:53:54;8.10;99.90
21772;DHT22;11047;47.904;8.110;2023-10-08T00:56:25;8.30;99.90
21772;DHT22;11047;47.904;8.110;2023-10-08T00:59:10;8.30;99.90
21772;DHT22;11047;47.904;8.110;2023-10-08T01:01:41;8.10;99.90
21772;DHT22;11047;47.904;8.110;2023-10-08T01:04:16;8.00;99.90
21772;DHT22;11047;47.904;8.110;2023-10-08T01:06:43;8.10;99.90
21772;DHT22;11047;47.904;8.110;2023-10-08T01:09:10;8.00;99.90
21772;DHT22;11047;47.904;8.110;2023-10-08T01:11:43;8.10;99.90
21772;DHT22;11047;47.904;8.110;2023-10-08T01:14:15;8.00;99.90
21772;DHT22;11047;47.904;8.110;2023-10-08T01:16:47;8.10;99.90
21772;DHT22;11047;47.904;8.110;2023-10-08T01:19:18;8.20;99.90
21772;DHT22;11047;47.904;8.110;2023-10-08T01:21:46;8.10;99.90
21772;DHT22;11047;47.904;8.110;2023-10-08T01:24:15;8.00;99.90
21772;DHT22;11047;47.904;8.110;2023-10-08T01:26:43;8.00;99.90
21772;DHT22;11047;47.904;8.110;2023-10-08T01:29:11;8.10;99.90
21772;DHT22;11047;47.904;8.110;2023-10-08T01:31:45;7.90;99.90
21772;DHT22;11047;47.904;8.110;2023-10-08T01:34:13;8.00;99.90
21772;DHT22;11047;47.904;8.110;2023-10-08T01:36:42;8.10;99.90
21772;DHT22;11047;47.904;8.110;2023-10-08T01:39:10;8.00;99.90
21772;DHT22;11047;47.904;8.110;2023-10-08T01:41:43;8.50;99.90
21772;DHT22;11047;47.904;8.110;2023-10-08T01:44:10;8.60;99.90
21772;DHT22;11047;47.904;8.110;2023-10-08T01:46:37;8.10;99.90
21772;DHT22;11047;47.904;8.110;2023-10-08T01:49:06;7.90;99.90
21772;DHT22;11047;47.904;8.110;2023-10-08T01:51:40;7.90;99.90
21772;DHT22;11047;47.904;8.110;2023-10-08T01:54:12;7.80;99.90
21772;DHT22;11047;47.904;8.110;2023-10-08T01:56:44;7.90;99.90
21772;DHT22;11047;47.904;8.110;2023-10-08T01:59:12;7.90;99.90
21772;DHT22;11047;47.904;8.110;2023-10-08T02:01:41;8.00;99.90
21772;DHT22;11047;47.904;8.110;2023-10-08T02:04:08;8.20;99.90
21772;DHT22;11047;47.904;8.110;2023-10-08T02:06:39;7.90;99.90
21772;DHT22;11047;47.904;8.110;2023-10-08T02:09:06;8.10;99.90
21772;DHT22;11047;47.904;8.110;2023-10-08T02:11:44;8.50;99.90
21772;DHT22;11047;47.904;8.110;2023-10-08T02:14:11;7.90;99.90
21772;DHT22;11047;47.904;8.110;2023-10-08T02:16:40;8.10;99.90
21772;DHT22;11047;47.904;8.110;2023-10-08T02:19:08;7.90;99.90
21772;DHT22;11047;47.904;8.110;2023-10-08T02:21:37;7.90;99.90
21772;DHT22;11047;47.904;8.110;2023-10-08T02:24:05;8.10;99.90
21772;DHT22;11047;47.904;8.110;2023-10-08T02:26:33;7.80;99.90
21772;DHT22;11047;47.904;8.110;2023-10-08T02:29:01;7.90;99.90
21772;DHT22;11047;47.904;8.110;2023-10-08T02:31:31;7.90;99.90
21772;DHT22;11047;47.904;8.110;2023-10-08T02:33:58;7.90;99.90
21772;DHT22;11047;47.904;8.110;2023-10-08T02:36:25;8.10;99.90
21772;DHT22;11047;47.904;8.110;2023-10-08T02:38:52;7.90;99.90
21772;DHT22;11047;47.904;8.110;2023-10-08T02:41:20;8.00;99.90
21772;DHT22;11047;47.904;8.110;2023-10-08T02:43:50;8.00;99.90
21772;DHT22;11047;47.904;8.110;2023-10-08T02:46:18;7.80;99.90
21772;DHT22;11047;47.904;8.110;2023-10-08T02:48:45;7.90;99.90
21772;DHT22;11047;47.904;8.110;2023-10-08T02:51:12;7.80;99.90
21772;DHT22;11047;47.904;8.110;2023-10-08T02:53:40;7.80;99.90
21772;DHT22;11047;47.904;8.110;2023-10-08T02:56:09;7.80;99.90
21772;DHT22;11047;47.904;8.110;2023-10-08T02:58:39;7.80;99.90
21772;DHT22;11047;47.904;8.110;2023-10-08T03:01:08;7.70;99.90
21772;DHT22;11047;47.904;8.110;2023-10-08T03:03:39;7.70;99.90
21772;DHT22;11047;47.904;8.110;2023-10-08T03:06:07;8.20;99.90
21772;DHT22;11047;47.904;8.110;2023-10-08T03:08:37;8.10;99.90
21772;DHT22;11047;47.904;8.110;2023-10-08T03:11:09;7.70;99.90
21772;DHT22;11047;47.904;8.110;2023-10-08T03:13:44;7.70;99.90
21772;DHT22;11047;47.904;8.110;2023-10-08T03:16:12;7.70;99.90
21772;DHT22;11047;47.904;8.110;2023-10-08T03:18:41;8.10;99.90
21772;DHT22;11047;47.904;8.110;2023-10-08T03:21:11;7.70;99.90
21772;DHT22;11047;47.904;8.110;2023-10-08T03:23:54;7.50;99.90
21772;DHT22;11047;47.904;8.110;2023-10-08T03:26:24;7.70;99.90
21772;DHT22;11047;47.904;8.110;2023-10-08T03:29:01;8.20;99.90
21772;DHT22;11047;47.904;8.110;2023-10-08T03:31:33;8.30;99.90
21772;DHT22;11047;47.904;8.110;2023-10-08T03:34:17;8.40;99.90
21772;DHT22;11047;47.904;8.110;2023-10-08T03:36:46;8.10;99.90
21772;DHT22;11047;47.904;8.110;2023-10-08T03:39:13;7.80;99.90
21772;DHT22;11047;47.904;8.110;2023-10-08T03:41:41;7.90;99.90
21772;DHT22;11047;47.904;8.110;2023-10-08T03:44:17;7.60;99.90
21772;DHT22;11047;47.904;8.110;2023-10-08T03:46:46;7.60;99.90
21772;DHT22;11047;47.904;8.110;2023-10-08T03:49:13;7.50;99.90
21772;DHT22;11047;47.904;8.110;2023-10-08T03:51:52;7.60;99.90
21772;DHT22;11047;47.904;8.110;2023-10-08T03:54:19;7.90;99.90
21772;DHT22;11047;47.904;8.110;2023-10-08T03:56:49;7.90;99.90
21772;DHT22;11047;47.904;8.110;2023-10-08T03:59:17;7.50;99.90
21772;DHT22;11047;47.904;8.110;2023-10-08T04:01:56;7.50;99.90
21772;DHT22;11047;47.904;8.110;2023-10-08T04:04:26;7.50;99.90
21772;DHT22;11047;47.904;8.110;2023-10-08T04:07:16;7.70;99.90
21772;DHT22;11047;47.904;8.110;2023-10-08T04:09:55;7.60;99.90
21772;DHT22;11047;47.904;8.110;2023-10-08T04:12:42;7.60;99.90
21772;DHT22;11047;47.904;8.110;2023-10-08T04:15:14;7.90;99.90
21772;DHT22;11047;47.904;8.110;2023-10-08T04:17:42;7.80;99.90
21772;DHT22;11047;47.904;8.110;2023-10-08T04:20:11;7.60;99.90
21772;DHT22;11047;47.904;8.110;2023-10-08T04:22:58;7.50;99.90
21772;DHT22;11047;47.904;8.110;2023-10-08T04:25:25;7.70;99.90
21772;DHT22;11047;47.904;8.110;2023-10-08T04:27:53;8.20;99.90
21772;DHT22;11047;47.904;8.110;2023-10-08T04:30:24;8.00;99.90
21772;DHT22;11047;47.904;8.110;2023-10-08T04:32:59;8.10;99.90
21772;DHT22;11047;47.904;8.110;2023-10-08T04:35:33;8.10;99.90
21772;DHT22;11047;47.904;8.110;2023-10-08T04:38:04;7.50;99.90
21772;DHT22;11047;47.904;8.110;2023-10-08T04:40:34;7.50;99.90
21772;DHT22;11047;47.904;8.110;2023-10-08T04:43:07;7.50;99.90
21772;DHT22;11047;47.904;8.110;2023-10-08T04:45:36;7.50;99.90
21772;DHT22;11047;47.904;8.110;2023-10-08T04:48:04;7.90;99.90
21772;DHT22;11047;47.904;8.110;2023-10-08T04:50:35;7.50;99.90
21772;DHT22;11047;47.904;8.110;2023-10-08T04:53:04;8.10;99.90
21772;DHT22;11047;47.904;8.110;2023-10-08T04:55:34;7.90;99.90
21772;DHT22;11047;47.904;8.110;2023-10-08T04:58:07;8.30;99.90
21772;DHT22;11047;47.904;8.110;2023-10-08T05:00:45;7.50;99.90
21772;DHT22;11047;47.904;8.110;2023-10-08T05:03:19;7.80;99.90
21772;DHT22;11047;47.904;8.110;2023-10-08T05:05:48;7.50;99.90
21772;DHT22;11047;47.904;8.110;2023-10-08T05:08:34;7.30;99.90
21772;DHT22;11047;47.904;8.110;2023-10-08T05:11:13;7.30;99.90
21772;DHT22;11047;47.904;8.110;2023-10-08T05:14:11;7.40;99.90
21772;DHT22;11047;47.904;8.110;2023-10-08T05:16:55;7.90;99.90
21772;DHT22;11047;47.904;8.110;2023-10-08T05:19:26;7.00;99.90
21772;DHT22;11047;47.904;8.110;2023-10-08T05:22:15;7.40;99.90
21772;DHT22;11047;47.904;8.110;2023-10-08T05:24:57;8.30;99.90
21772;DHT22;11047;47.904;8.110;2023-10-08T05:27:33;7.40;99.90
21772;DHT22;11047;47.904;8.110;2023-10-08T05:30:21;7.40;99.90
21772;DHT22;11047;47.904;8.110;2023-10-08T05:32:54;7.40;99.90
21772;DHT22;11047;47.904;8.110;2023-10-08T05:35:42;8.00;99.90
21772;DHT22;11047;47.904;8.110;2023-10-08T05:38:21;7.60;99.90
21772;DHT22;11047;47.904;8.110;2023-10-08T05:41:16;7.80;99.90
21772;DHT22;11047;47.904;8.110;2023-10-08T05:44:05;7.30;99.90
21772;DHT22;11047;47.904;8.110;2023-10-08T05:46:49;7.50;99.90
21772;DHT22;11047;47.904;8.110;2023-10-08T05:49:30;7.30;99.90
21772;DHT22;11047;47.904;8.110;2023-10-08T05:52:19;7.40;99.90
21772;DHT22;11047;47.904;8.110;2023-10-08T05:54:52;8.00;99.90
21772;DHT22;11047;47.904;8.110;2023-10-08T05:57:43;8.10;99.90
21772;DHT22;11047;47.904;8.110;2023-10-08T06:00:18;7.30;99.90
21772;DHT22;11047;47.904;8.110;2023-10-08T06:03:11;7.40;99.90
21772;DHT22;11047;47.904;8.110;2023-10-08T06:05:58;7.80;99.90
21772;DHT22;11047;47.904;8.110;2023-10-08T06:08:39;7.80;99.90
21772;DHT22;11047;47.904;8.110;2023-10-08T06:11:18;7.90;99.90
21772;DHT22;11047;47.904;8.110;2023-10-08T06:14:04;7.50;99.90
21772;DHT22;11047;47.904;8.110;2023-10-08T06:16:40;8.00;99.90
21772;DHT22;11047;47.904;8.110;2023-10-08T06:19:10;7.60;99.90
21772;DHT22;11047;47.904;8.110;2023-10-08T06:21:38;8.00;99.90
21772;DHT22;11047;47.904;8.110;2023-10-08T06:24:06;7.60;99.90
21772;DHT22;11047;47.904;8.110;2023-10-08T06:26:37;7.60;99.90
21772;DHT22;11047;47.904;8.110;2023-10-08T06:29:12;8.40;99.90
21772;DHT22;11047;47.904;8.110;2023-10-08T06:31:52;7.40;99.90
21772;DHT22;11047;47.904;8.110;2023-10-08T06:34:21;8.10;99.90
21772;DHT22;11047;47.904;8.110;2023-10-08T06:36:53;7.90;99.90
21772;DHT22;11047;47.904;8.110;2023-10-08T06:39:21;7.90;99.90
21772;DHT22;11047;47.904;8.110;2023-10-08T06:41:52;8.00;99.90
21772;DHT22;11047;47.904;8.110;2023-10-08T06:44:21;8.00;99.90
21772;DHT22;11047;47.904;8.110;2023-10-08T06:46:49;8.00;99.90
21772;DHT22;11047;47.904;8.110;2023-10-08T06:49:21;8.10;99.90
21772;DHT22;11047;47.904;8.110;2023-10-08T06:51:50;8.30;99.90
21772;DHT22;11047;47.904;8.110;2023-10-08T06:54:17;8.40;99.90
21772;DHT22;11047;47.904;8.110;2023-10-08T06:56:45;8.50;99.90
21772;DHT22;11047;47.904;8.110;2023-10-08T06:59:28;8.50;99.90
21772;DHT22;11047;47.904;8.110;2023-10-08T07:01:57;8.40;99.90
21772;DHT22;11047;47.904;8.110;2023-10-08T07:04:29;8.00;99.90
21772;DHT22;11047;47.904;8.110;2023-10-08T07:07:05;8.80;99.90
21772;DHT22;11047;47.904;8.110;2023-10-08T07:09:47;9.00;99.90
21772;DHT22;11047;47.904;8.110;2023-10-08T07:12:31;8.70;99.90
21772;DHT22;11047;47.904;8.110;2023-10-08T07:15:21;9.00;99.90
21772;DHT22;11047;47.904;8.110;2023-10-08T07:17:57;9.30;99.90
21772;DHT22;11047;47.904;8.110;2023-10-08T07:20:36;9.20;99.90
21772;DHT22;11047;47.904;8.110;2023-10-08T07:23:08;9.40;99.90
21772;DHT22;11047;47.904;8.110;2023-10-08T07:25:57;9.70;99.90
21772;DHT22;11047;47.904;8.110;2023-10-08T07:28:37;9.50;99.90
21772;DHT22;11047;47.904;8.110;2023-10-08T07:31:15;10.00;99.90
21772;DHT22;11047;47.904;8.110;2023-10-08T07:33:45;10.40;99.90
21772;DHT22;11047;47.904;8.110;2023-10-08T07:36:21;10.80;99.90
21772;DHT22;11047;47.904;8.110;2023-10-08T07:38:49;10.80;99.90
21772;DHT22;11047;47.904;8.110;2023-10-08T07:41:20;10.90;99.90
21772;DHT22;11047;47.904;8.110;2023-10-08T07:43:49;10.70;99.90
21772;DHT22;11047;47.904;8.110;2023-10-08T07:46:23;11.20;99.90
21772;DHT22;11047;47.904;8.110;2023-10-08T07:48:53;11.70;99.90
21772;DHT22;11047;47.904;8.110;2023-10-08T07:51:24;11.80;99.90
21772;DHT22;11047;47.904;8.110;2023-10-08T07:53:54;11.90;99.90
21772;DHT22;11047;47.904;8.110;2023-10-08T07:56:23;12.70;99.90
21772;DHT22;11047;47.904;8.110;2023-10-08T07:58:51;13.00;99.90
21772;DHT22;11047;47.904;8.110;2023-10-08T08:01:24;14.10;99.90
21772;DHT22;11047;47.904;8.110;2023-10-08T08:03:54;13.70;99.90
21772;DHT22;11047;47.904;8.110;2023-10-08T08:06:23;14.10;99.90
21772;DHT22;11047;47.904;8.110;2023-10-08T08:08:52;14.30;99.90
21772;DHT22;11047;47.904;8.110;2023-10-08T08:11:21;14.10;99.90
21772;DHT22;11047;47.904;8.110;2023-10-08T08:13:52;15.00;99.90
21772;DHT22;11047;47.904;8.110;2023-10-08T08:16:19;16.30;99.90
21772;DHT22;11047;47.904;8.110;2023-10-08T08:18:50;16.80;99.90
21772;DHT22;11047;47.904;8.110;2023-10-08T08:21:21;17.70;99.90
21772;DHT22;11047;47.904;8.110;2023-10-08T08:23:49;19.40;99.90
21772;DHT22;11047;47.904;8.110;2023-10-08T08:26:30;20.90;99.90
21772;DHT22;11047;47.904;8.110;2023-10-08T08:29:05;21.30;99.90
21772;DHT22;11047;47.904;8.110;2023-10-08T08:31:35;21.40;99.90
21772;DHT22;11047;47.904;8.110;2023-10-08T08:34:06;21.60;99.90
21772;DHT22;11047;47.904;8.110;2023-10-08T08:36:43;22.10;99.90
21772;DHT22;11047;47.904;8.110;2023-10-08T08:39:13;24.40;99.90
21772;DHT22;11047;47.904;8.110;2023-10-08T08:41:58;26.40;99.90
21772;DHT22;11047;47.904;8.110;2023-10-08T08:44:27;28.10;99.90
21772;DHT22;11047;47.904;8.110;2023-10-08T08:46:58;29.30;99.90
21772;DHT22;11047;47.904;8.110;2023-10-08T08:49:32;30.10;99.90
21772;DHT22;11047;47.904;8.110;2023-10-08T08:52:03;31.20;99.90
21772;DHT22;11047;47.904;8.110;2023-10-08T08:54:31;32.20;99.90
21772;DHT22;11047;47.904;8.110;2023-10-08T08:56:59;32.80;99.90
21772;DHT22;11047;47.904;8.110;2023-10-08T08:59:30;33.10;99.40
21772;DHT22;11047;47.904;8.110;2023-10-08T09:02:01;33.30;97.70
21772;DHT22;11047;47.904;8.110;2023-10-08T09:04:47;33.80;97.20
21772;DHT22;11047;47.904;8.110;2023-10-08T09:07:19;32.80;95.00
21772;DHT22;11047;47.904;8.110;2023-10-08T09:09:59;31.70;96.10
21772;DHT22;11047;47.904;8.110;2023-10-08T09:12:34;29.90;96.90
21772;DHT22;11047;47.904;8.110;2023-10-08T09:15:02;29.50;98.80
21772;DHT22;11047;47.904;8.110;2023-10-08T09:17:31;28.30;99.90
21772;DHT22;11047;47.904;8.110;2023-10-08T09:20:10;27.40;99.90
21772;DHT22;11047;47.904;8.110;2023-10-08T09:23:06;26.30;99.90
21772;DHT22;11047;47.904;8.110;2023-10-08T09:26:22;25.60;99.90
21772;DHT22;11047;47.904;8.110;2023-10-08T09:28:51;24.80;99.90
21772;DHT22;11047;47.904;8.110;2023-10-08T09:31:35;24.00;99.90
21772;DHT22;11047;47.904;8.110;2023-10-08T09:34:28;23.70;99.90
21772;DHT22;11047;47.904;8.110;2023-10-08T09:37:24;23.40;99.90
21772;DHT22;11047;47.904;8.110;2023-10-08T09:40:08;23.60;99.90
21772;DHT22;11047;47.904;8.110;2023-10-08T09:42:53;23.50;99.90
21772;DHT22;11047;47.904;8.110;2023-10-08T09:45:38;23.20;99.90
21772;DHT22;11047;47.904;8.110;2023-10-08T09:48:34;23.10;99.90
21772;DHT22;11047;47.904;8.110;2023-10-08T09:51:48;22.90;99.90
21772;DHT22;11047;47.904;8.110;2023-10-08T09:55:06;22.80;99.90
21772;DHT22;11047;47.904;8.110;2023-10-08T09:58:01;22.90;99.90
21772;DHT22;11047;47.904;8.110;2023-10-08T10:00:38;22.70;99.90
21772;DHT22;11047;47.904;8.110;2023-10-08T10:03:28;22.50;99.90
21772;DHT22;11047;47.904;8.110;2023-10-08T10:06:27;22.60;99.90
21772;DHT22;11047;47.904;8.110;2023-10-08T10:09:03;23.00;99.90
21772;DHT22;11047;47.904;8.110;2023-10-08T10:18:37;22.90;99.90
21772;DHT22;11047;47.904;8.110;2023-10-08T10:21:26;23.00;99.90
21772;DHT22;11047;47.904;8.110;2023-10-08T10:24:28;22.60;99.90
21772;DHT22;11047;47.904;8.110;2023-10-08T10:27:10;22.70;99.90
21772;DHT22;11047;47.904;8.110;2023-10-08T10:29:41;23.20;99.90
21772;DHT22;11047;47.904;8.110;2023-10-08T10:32:17;23.20;99.90
21772;DHT22;11047;47.904;8.110;2023-10-08T10:35:17;23.50;99.90
21772;DHT22;11047;47.904;8.110;2023-10-08T10:37:52;23.10;99.90
21772;DHT22;11047;47.904;8.110;2023-10-08T10:40:24;22.90;99.90
21772;DHT22;11047;47.904;8.110;2023-10-08T10:43:07;22.70;99.90
21772;DHT22;11047;47.904;8.110;2023-10-08T10:45:41;22.10;99.90
21772;DHT22;11047;47.904;8.110;2023-10-08T10:59:00;22.00;99.90
21772;DHT22;11047;47.904;8.110;2023-10-08T11:01:41;21.60;99.90
21772;DHT22;11047;47.904;8.110;2023-10-08T11:04:10;21.70;99.90
21772;DHT22;11047;47.904;8.110;2023-10-08T11:06:41;21.70;99.90
21772;DHT22;11047;47.904;8.110;2023-10-08T11:09:10;21.90;99.90
21772;DHT22;11047;47.904;8.110;2023-10-08T11:11:41;21.80;99.90
21772;DHT22;11047;47.904;8.110;2023-10-08T11:14:13;21.80;99.90
21772;DHT22;11047;47.904;8.110;2023-10-08T11:16:44;21.90;99.90
21772;DHT22;11047;47.904;8.110;2023-10-08T11:19:11;21.70;99.90
21772;DHT22;11047;47.904;8.110;2023-10-08T11:21:50;21.60;99.90
21772;DHT22;11047;47.904;8.110;2023-10-08T11:24:29;21.60;99.90
21772;DHT22;11047;47.904;8.110;2023-10-08T11:26:59;21.70;99.90
21772;DHT22;11047;47.904;8.110;2023-10-08T11:29:44;21.90;99.90
21772;DHT22;11047;47.904;8.110;2023-10-08T11:32:13;22.00;99.90
21772;DHT22;11047;47.904;8.110;2023-10-08T11:34:45;22.20;99.90
21772;DHT22;11047;47.904;8.110;2023-10-08T11:37:15;22.30;99.90
21772;DHT22;11047;47.904;8.110;2023-10-08T11:39:52;22.40;99.90
21772;DHT22;11047;47.904;8.110;2023-10-08T11:42:23;22.50;99.90
21772;DHT22;11047;47.904;8.110;2023-10-08T11:45:11;22.30;99.90
21772;DHT22;11047;47.904;8.110;2023-10-08T11:47:51;21.90;99.90
21772;DHT22;11047;47.904;8.110;2023-10-08T11:50:24;21.90;99.90
21772;DHT22;11047;47.904;8.110;2023-10-08T11:52:57;22.00;99.90
21772;DHT22;11047;47.904;8.110;2023-10-08T11:55:29;21.80;99.90
21772;DHT22;11047;47.904;8.110;2023-10-08T11:58:00;21.80;99.90
21772;DHT22;11047;47.904;8.110;2023-10-08T12:00:36;21.80;99.90
21772;DHT22;11047;47.904;8.110;2023-10-08T12:03:09;21.70;99.90
21772;DHT22;11047;47.904;8.110;2023-10-08T12:05:37;21.80;99.90
21772;DHT22;11047;47.904;8.110;2023-10-08T12:08:13;21.90;99.90
21772;DHT22;11047;47.904;8.110;2023-10-08T12:10:40;22.00;99.90
21772;DHT22;11047;47.904;8.110;2023-10-08T12:13:09;22.20;99.90
21772;DHT22;11047;47.904;8.110;2023-10-08T12:15:38;22.10;99.90
21772;DHT22;11047;47.904;8.110;2023-10-08T12:18:07;22.10;99.90
21772;DHT22;11047;47.904;8.110;2023-10-08T12:20:41;22.30;99.90
21772;DHT22;11047;47.904;8.110;2023-10-08T12:23:11;22.30;99.90
21772;DHT22;11047;47.904;8.110;2023-10-08T12:25:45;22.30;99.90
21772;DHT22;11047;47.904;8.110;2023-10-08T12:28:16;22.50;99.90
21772;DHT22;11047;47.904;8.110;2023-10-08T12:30:46;22.60;99.90
21772;DHT22;11047;47.904;8.110;2023-10-08T12:33:14;22.80;99.90
21772;DHT22;11047;47.904;8.110;2023-10-08T12:35:42;23.00;99.90
21772;DHT22;11047;47.904;8.110;2023-10-08T12:38:10;23.30;99.90
21772;DHT22;11047;47.904;8.110;2023-10-08T12:40:38;23.30;99.90
21772;DHT22;11047;47.904;8.110;2023-10-08T12:43:18;23.20;99.90
21772;DHT22;11047;47.904;8.110;2023-10-08T12:45:48;23.00;99.90
21772;DHT22;11047;47.904;8.110;2023-10-08T12:48:23;23.00;99.90
21772;DHT22;11047;47.904;8.110;2023-10-08T12:50:51;23.00;99.90
21772;DHT22;11047;47.904;8.110;2023-10-08T12:53:23;22.90;99.90
21772;DHT22;11047;47.904;8.110;2023-10-08T12:55:53;23.30;99.90
21772;DHT22;11047;47.904;8.110;2023-10-08T12:58:21;23.40;99.90
21772;DHT22;11047;47.904;8.110;2023-10-08T13:00:52;23.50;99.90
21772;DHT22;11047;47.904;8.110;2023-10-08T13:03:24;23.80;99.90
21772;DHT22;11047;47.904;8.110;2023-10-08T13:05:56;23.90;99.90
21772;DHT22;11047;47.904;8.110;2023-10-08T13:08:29;23.80;99.90
21772;DHT22;11047;47.904;8.110;2023-10-08T13:10:56;23.70;99.90
21772;DHT22;11047;47.904;8.110;2023-10-08T13:13:26;23.70;99.90
21772;DHT22;11047;47.904;8.110;2023-10-08T13:15:55;23.40;99.90
21772;DHT22;11047;47.904;8.110;2023-10-08T13:18:25;23.50;99.90
21772;DHT22;11047;47.904;8.110;2023-10-08T13:20:52;23.60;99.90
21772;DHT22;11047;47.904;8.110;2023-10-08T13:23:19;23.70;99.90
21772;DHT22;11047;47.904;8.110;2023-10-08T13:25:49;23.40;99.90
21772;DHT22;11047;47.904;8.110;2023-10-08T13:28:19;23.20;99.90
21772;DHT22;11047;47.904;8.110;2023-10-08T13:30:48;23.10;99.90
21772;DHT22;11047;47.904;8.110;2023-10-08T13:33:19;23.20;99.90
21772;DHT22;11047;47.904;8.110;2023-10-08T13:35:46;23.20;99.90
21772;DHT22;11047;47.904;8.110;2023-10-08T13:38:16;23.30;99.90
21772;DHT22;11047;47.904;8.110;2023-10-08T13:40:45;23.20;99.90
21772;DHT22;11047;47.904;8.110;2023-10-08T13:43:28;23.30;99.90
21772;DHT22;11047;47.904;8.110;2023-10-08T13:46:03;23.20;99.90
21772;DHT22;11047;47.904;8.110;2023-10-08T13:48:34;23.40;99.90
21772;DHT22;11047;47.904;8.110;2023-10-08T13:51:02;23.40;99.90
21772;DHT22;11047;47.904;8.110;2023-10-08T13:53:30;23.30;99.90
21772;DHT22;11047;47.904;8.110;2023-10-08T13:55:58;23.20;99.90
21772;DHT22;11047;47.904;8.110;2023-10-08T13:58:27;23.20;99.90
21772;DHT22;11047;47.904;8.110;2023-10-08T14:00:55;23.10;99.90
21772;DHT22;11047;47.904;8.110;2023-10-08T14:03:22;23.10;99.90
21772;DHT22;11047;47.904;8.110;2023-10-08T14:05:51;23.20;99.90
21772;DHT22;11047;47.904;8.110;2023-10-08T14:08:20;23.30;99.90
21772;DHT22;11047;47.904;8.110;2023-10-08T14:10:48;23.20;99.90
21772;DHT22;11047;47.904;8.110;2023-10-08T14:13:15;22.90;99.90
21772;DHT22;11047;47.904;8.110;2023-10-08T14:15:45;22.90;99.90
21772;DHT22;11047;47.904;8.110;2023-10-08T14:18:15;22.80;99.90
21772;DHT22;11047;47.904;8.110;2023-10-08T14:20:44;22.70;99.90
21772;DHT22;11047;47.904;8.110;2023-10-08T14:23:20;22.70;99.90
21772;DHT22;11047;47.904;8.110;2023-10-08T14:25:48;22.80;99.90
21772;DHT22;11047;47.904;8.110;2023-10-08T14:28:17;22.70;99.90
21772;DHT22;11047;47.904;8.110;2023-10-08T14:30:51;22.70;99.90
21772;DHT22;11047;47.904;8.110;2023-10-08T14:33:21;22.80;99.90
21772;DHT22;11047;47.904;8.110;2023-10-08T14:35:53;22.80;99.90
21772;DHT22;11047;47.904;8.110;2023-10-08T14:38:38;22.80;99.90
21772;DHT22;11047;47.904;8.110;2023-10-08T14:41:23;22.80;99.90
21772;DHT22;11047;47.904;8.110;2023-10-08T14:44:07;22.70;99.90
21772;DHT22;11047;47.904;8.110;2023-10-08T14:46:33;22.60;99.90
21772;DHT22;11047;47.904;8.110;2023-10-08T14:49:03;22.50;99.90
21772;DHT22;11047;47.904;8.110;2023-10-08T14:51:38;22.50;99.90
21772;DHT22;11047;47.904;8.110;2023-10-08T14:54:08;22.50;99.90
21772;DHT22;11047;47.904;8.110;2023-10-08T14:56:35;22.40;99.90
21772;DHT22;11047;47.904;8.110;2023-10-08T14:59:03;22.30;99.90
21772;DHT22;11047;47.904;8.110;2023-10-08T15:01:38;22.30;99.90
21772;DHT22;11047;47.904;8.110;2023-10-08T15:04:05;22.20;99.90
21772;DHT22;11047;47.904;8.110;2023-10-08T15:06:36;22.10;99.90
21772;DHT22;11047;47.904;8.110;2023-10-08T15:09:04;21.90;99.90
21772;DHT22;11047;47.904;8.110;2023-10-08T15:11:35;21.90;99.90
21772;DHT22;11047;47.904;8.110;2023-10-08T15:14:02;21.80;99.90
21772;DHT22;11047;47.904;8.110;2023-10-08T15:16:35;21.60;99.90
21772;DHT22;11047;47.904;8.110;2023-10-08T15:19:02;21.60;99.90
21772;DHT22;11047;47.904;8.110;2023-10-08T15:21:30;21.50;99.90
21772;DHT22;11047;47.904;8.110;2023-10-08T15:23:58;21.30;99.90
21772;DHT22;11047;47.904;8.110;2023-10-08T15:26:31;21.10;99.90
21772;DHT22;11047;47.904;8.110;2023-10-08T15:28:59;21.10;99.90
21772;DHT22;11047;47.904;8.110;2023-10-08T15:31:28;21.00;99.90
21772;DHT22;11047;47.904;8.110;2023-10-08T15:33:55;21.10;99.90
21772;DHT22;11047;47.904;8.110;2023-10-08T15:36:22;21.10;99.90
21772;DHT22;11047;47.904;8.110;2023-10-08T15:38:49;20.80;99.90
21772;DHT22;11047;47.904;8.110;2023-10-08T15:41:17;20.70;99.90
21772;DHT22;11047;47.904;8.110;2023-10-08T15:43:50;20.50;99.90
21772;DHT22;11047;47.904;8.110;2023-10-08T15:46:18;20.40;99.90
21772;DHT22;11047;47.904;8.110;2023-10-08T15:48:45;20.30;99.90
21772;DHT22;11047;47.904;8.110;2023-10-08T15:51:12;20.10;99.90
21772;DHT22;11047;47.904;8.110;2023-10-08T15:53:39;20.00;99.90
21772;DHT22;11047;47.904;8.110;2023-10-08T15:56:06;20.00;99.90
21772;DHT22;11047;47.904;8.110;2023-10-08T15:58:33;19.90;99.90
21772;DHT22;11047;47.904;8.110;2023-10-08T16:01:00;19.80;99.90
21772;DHT22;11047;47.904;8.110;2023-10-08T16:03:28;19.70;99.90
21772;DHT22;11047;47.904;8.110;2023-10-08T16:05:55;19.50;99.90
21772;DHT22;11047;47.904;8.110;2023-10-08T16:08:22;19.30;99.90
21772;DHT22;11047;47.904;8.110;2023-10-08T16:10:49;19.20;99.90
21772;DHT22;11047;47.904;8.110;2023-10-08T16:13:16;19.20;99.90
21772;DHT22;11047;47.904;8.110;2023-10-08T16:15:43;18.80;99.90
21772;DHT22;11047;47.904;8.110;2023-10-08T16:18:10;18.60;99.90
21772;DHT22;11047;47.904;8.110;2023-10-08T16:20:39;18.50;99.90
21772;DHT22;11047;47.904;8.110;2023-10-08T16:23:05;18.40;99.90
21772;DHT22;11047;47.904;8.110;2023-10-08T16:25:33;18.20;99.90
21772;DHT22;11047;47.904;8.110;2023-10-08T16:28:01;18.10;99.90
21772;DHT22;11047;47.904;8.110;2023-10-08T16:30:29;17.90;99.90
21772;DHT22;11047;47.904;8.110;2023-10-08T16:32:59;17.80;99.90